sensor_id;sensor_type;location;lat;lon;timestamp;pressure;altitude;pressure_sealevel;temperature;humidity
13690;BME280;6917;52.194;9.894;2022-12-18T00:02:19;101810.81;;;-5.90;97.96
13690;BME280;6917;52.194;9.894;2022-12-18T00:04:45;101792.28;;;-5.84;98.19
13690;BME280;6917;52.194;9.894;2022-12-18T00:07:10;101802.22;;;-5.70;97.98
13690;BME280;6917;52.194;9.894;2022-12-18T00:09:35;101806.81;;;-5.47;98.30
13690;BME280;6917;52.194;9.894;2022-12-18T00:12:01;101796.66;;;-5.44;98.54
13690;BME280;6917;52.194;9.894;2022-12-18T00:14:26;101798.13;;;-5.41;98.04
13690;BME280;6917;52.194;9.894;2022-12-18T00:16:51;101794.63;;;-5.33;97.84
13690;BME280;6917;52.194;9.894;2022-12-18T00:19:17;101806.09;;;-5.33;97.32
13690;BME280;6917;52.194;9.894;2022-12-18T00:21:43;101811.38;;;-5.25;97.06
13690;BME280;6917;52.194;9.894;2022-12-18T00:24:09;101818.34;;;-5.24;96.18
13690;BME280;6917;52.194;9.894;2022-12-18T00:26:36;101811.84;;;-5.21;96.15
13690;BME280;6917;52.194;9.894;2022-12-18T00:29:05;101808.34;;;-5.22;96.04
13690;BME280;6917;52.194;9.894;2022-12-18T00:31:31;101817.84;;;-5.19;95.94
13690;BME280;6917;52.194;9.894;2022-12-18T00:33:57;101825.97;;;-5.13;95.67
13690;BME280;6917;52.194;9.894;2022-12-18T00:36:30;101823.56;;;-4.99;95.29
13690;BME280;6917;52.194;9.894;2022-12-18T00:38:57;101816.38;;;-4.91;94.48
13690;BME280;6917;52.194;9.894;2022-12-18T00:41:23;101814.03;;;-4.94;93.78
13690;BME280;6917;52.194;9.894;2022-12-18T00:44:10;101822.28;;;-5.12;93.15
13690;BME280;6917;52.194;9.894;2022-12-18T00:46:36;101824.03;;;-5.27;92.96
13690;BME280;6917;52.194;9.894;2022-12-18T00:49:01;101827.06;;;-5.38;93.65
13690;BME280;6917;52.194;9.894;2022-12-18T00:51:27;101835.75;;;-5.44;93.16
13690;BME280;6917;52.194;9.894;2022-12-18T00:53:53;101841.44;;;-5.55;93.40
13690;BME280;6917;52.194;9.894;2022-12-18T00:56:18;101842.03;;;-5.76;93.61
13690;BME280;6917;52.194;9.894;2022-12-18T00:58:43;101846.03;;;-5.88;94.35
13690;BME280;6917;52.194;9.894;2022-12-18T01:01:09;101845.69;;;-5.77;94.44
13690;BME280;6917;52.194;9.894;2022-12-18T01:03:34;101833.34;;;-5.70;95.05
13690;BME280;6917;52.194;9.894;2022-12-18T01:06:05;101826.19;;;-5.61;95.56
13690;BME280;6917;52.194;9.894;2022-12-18T01:08:31;101827.63;;;-5.51;96.21
13690;BME280;6917;52.194;9.894;2022-12-18T01:10:56;101824.75;;;-5.41;95.46
13690;BME280;6917;52.194;9.894;2022-12-18T01:13:21;101832.56;;;-5.40;95.96
13690;BME280;6917;52.194;9.894;2022-12-18T01:15:50;101830.75;;;-5.39;95.22
13690;BME280;6917;52.194;9.894;2022-12-18T01:18:16;101841.03;;;-5.36;95.06
13690;BME280;6917;52.194;9.894;2022-12-18T01:20:41;101844.56;;;-5.44;95.16
13690;BME280;6917;52.194;9.894;2022-12-18T01:23:07;101842.44;;;-5.48;94.45
13690;BME280;6917;52.194;9.894;2022-12-18T01:25:32;101847.47;;;-5.61;94.56
13690;BME280;6917;52.194;9.894;2022-12-18T01:27:58;101848.13;;;-5.68;93.97
13690;BME280;6917;52.194;9.894;2022-12-18T01:30:23;101847.16;;;-5.75;94.09
13690;BME280;6917;52.194;9.894;2022-12-18T01:32:48;101845.50;;;-5.76;95.35
13690;BME280;6917;52.194;9.894;2022-12-18T01:35:14;101854.50;;;-5.77;95.30
13690;BME280;6917;52.194;9.894;2022-12-18T01:37:39;101848.00;;;-5.74;95.50
13690;BME280;6917;52.194;9.894;2022-12-18T01:40:05;101843.16;;;-5.79;95.78
13690;BME280;6917;52.194;9.894;2022-12-18T01:42:30;101848.88;;;-5.90;95.74
13690;BME280;6917;52.194;9.894;2022-12-18T01:45:00;101853.38;;;-5.98;96.24
13690;BME280;6917;52.194;9.894;2022-12-18T01:49:55;101860.84;;;-5.94;96.25
13690;BME280;6917;52.194;9.894;2022-12-18T01:52:21;101856.66;;;-5.88;97.42
13690;BME280;6917;52.194;9.894;2022-12-18T01:54:48;101861.31;;;-5.82;97.78
13690;BME280;6917;52.194;9.894;2022-12-18T01:57:15;101864.44;;;-5.79;97.34
13690;BME280;6917;52.194;9.894;2022-12-18T01:59:42;101860.66;;;-5.76;97.64
13690;BME280;6917;52.194;9.894;2022-12-18T02:02:10;101862.66;;;-5.78;98.30
13690;BME280;6917;52.194;9.894;2022-12-18T02:04:36;101862.66;;;-5.86;98.13
13690;BME280;6917;52.194;9.894;2022-12-18T02:07:04;101857.34;;;-5.94;97.03
13690;BME280;6917;52.194;9.894;2022-12-18T02:09:36;101861.03;;;-6.04;97.94
13690;BME280;6917;52.194;9.894;2022-12-18T02:14:55;101853.88;;;-6.27;97.08
13690;BME280;6917;52.194;9.894;2022-12-18T02:17:46;101858.41;;;-6.36;97.32
13690;BME280;6917;52.194;9.894;2022-12-18T02:20:24;101861.69;;;-6.42;97.70
13690;BME280;6917;52.194;9.894;2022-12-18T02:28:23;101854.38;;;-6.40;99.03
13690;BME280;6917;52.194;9.894;2022-12-18T02:30:53;101851.25;;;-6.36;99.17
13690;BME280;6917;52.194;9.894;2022-12-18T02:33:22;101856.72;;;-6.37;99.11
13690;BME280;6917;52.194;9.894;2022-12-18T02:35:50;101848.25;;;-6.33;99.16
13690;BME280;6917;52.194;9.894;2022-12-18T02:38:16;101840.59;;;-6.27;99.47
13690;BME280;6917;52.194;9.894;2022-12-18T02:40:42;101844.75;;;-6.17;100.00
13690;BME280;6917;52.194;9.894;2022-12-18T02:43:12;101847.09;;;-6.06;100.00
13690;BME280;6917;52.194;9.894;2022-12-18T02:45:53;101842.56;;;-5.97;100.00
13690;BME280;6917;52.194;9.894;2022-12-18T02:48:24;101847.88;;;-5.97;100.00
13690;BME280;6917;52.194;9.894;2022-12-18T02:53:35;101837.28;;;-6.05;100.00
13690;BME280;6917;52.194;9.894;2022-12-18T03:01:30;101841.25;;;-6.09;99.20
13690;BME280;6917;52.194;9.894;2022-12-18T03:04:02;101833.59;;;-6.12;99.64
13690;BME280;6917;52.194;9.894;2022-12-18T03:09:06;101836.09;;;-6.03;99.60
13690;BME280;6917;52.194;9.894;2022-12-18T03:11:34;101841.91;;;-5.99;99.12
13690;BME280;6917;52.194;9.894;2022-12-18T03:14:21;101836.09;;;-6.03;98.94
13690;BME280;6917;52.194;9.894;2022-12-18T03:16:51;101837.91;;;-5.95;99.23
13690;BME280;6917;52.194;9.894;2022-12-18T03:19:21;101831.44;;;-5.92;99.43
13690;BME280;6917;52.194;9.894;2022-12-18T03:21:53;101835.03;;;-5.85;99.98
13690;BME280;6917;52.194;9.894;2022-12-18T03:24:21;101842.03;;;-5.76;99.79
13690;BME280;6917;52.194;9.894;2022-12-18T03:26:52;101822.69;;;-5.70;100.00
13690;BME280;6917;52.194;9.894;2022-12-18T03:29:24;101824.69;;;-5.72;99.30
13690;BME280;6917;52.194;9.894;2022-12-18T03:31:54;101827.34;;;-5.72;99.62
13690;BME280;6917;52.194;9.894;2022-12-18T03:34:23;101832.50;;;-5.62;100.00
13690;BME280;6917;52.194;9.894;2022-12-18T03:36:51;101835.94;;;-5.46;99.63
13690;BME280;6917;52.194;9.894;2022-12-18T03:39:19;101838.53;;;-5.29;99.83
13690;BME280;6917;52.194;9.894;2022-12-18T03:42:18;101835.81;;;-5.21;99.52
13690;BME280;6917;52.194;9.894;2022-12-18T03:44:54;101834.16;;;-5.22;98.52
13690;BME280;6917;52.194;9.894;2022-12-18T03:47:35;101831.19;;;-5.19;97.88
13690;BME280;6917;52.194;9.894;2022-12-18T03:50:16;101829.00;;;-5.24;97.86
13690;BME280;6917;52.194;9.894;2022-12-18T03:55:12;101829.72;;;-5.30;96.90
13690;BME280;6917;52.194;9.894;2022-12-18T03:57:38;101833.84;;;-5.19;96.81
13690;BME280;6917;52.194;9.894;2022-12-18T04:00:08;101825.03;;;-5.20;96.53
13690;BME280;6917;52.194;9.894;2022-12-18T04:02:34;101820.84;;;-5.22;96.17
13690;BME280;6917;52.194;9.894;2022-12-18T04:05:04;101820.84;;;-5.22;96.15
13690;BME280;6917;52.194;9.894;2022-12-18T04:07:32;101824.69;;;-5.25;95.85
13690;BME280;6917;52.194;9.894;2022-12-18T04:09:58;101834.22;;;-5.30;96.03
13690;BME280;6917;52.194;9.894;2022-12-18T04:12:25;101838.19;;;-5.26;95.65
13690;BME280;6917;52.194;9.894;2022-12-18T04:14:51;101834.03;;;-5.29;96.25
13690;BME280;6917;52.194;9.894;2022-12-18T04:17:17;101836.81;;;-5.22;95.73
13690;BME280;6917;52.194;9.894;2022-12-18T04:19:42;101840.84;;;-5.26;95.71
13690;BME280;6917;52.194;9.894;2022-12-18T04:22:09;101835.41;;;-5.33;95.54
13690;BME280;6917;52.194;9.894;2022-12-18T04:24:35;101843.41;;;-5.41;95.80
13690;BME280;6917;52.194;9.894;2022-12-18T04:27:00;101843.56;;;-5.34;95.78
13690;BME280;6917;52.194;9.894;2022-12-18T04:29:26;101844.38;;;-5.34;95.11
13690;BME280;6917;52.194;9.894;2022-12-18T04:31:51;101840.50;;;-5.23;95.66
13690;BME280;6917;52.194;9.894;2022-12-18T04:34:16;101838.47;;;-5.21;95.24
13690;BME280;6917;52.194;9.894;2022-12-18T04:36:41;101843.03;;;-5.30;95.14
13690;BME280;6917;52.194;9.894;2022-12-18T04:39:07;101844.16;;;-5.24;94.45
13690;BME280;6917;52.194;9.894;2022-12-18T04:41:32;101839.66;;;-5.24;94.74
13690;BME280;6917;52.194;9.894;2022-12-18T04:43:57;101833.38;;;-5.31;94.59
13690;BME280;6917;52.194;9.894;2022-12-18T04:46:22;101835.56;;;-5.34;94.74
13690;BME280;6917;52.194;9.894;2022-12-18T04:48:48;101831.75;;;-5.40;94.79
13690;BME280;6917;52.194;9.894;2022-12-18T04:51:13;101828.22;;;-5.32;94.55
13690;BME280;6917;52.194;9.894;2022-12-18T04:53:38;101832.41;;;-5.38;94.89
13690;BME280;6917;52.194;9.894;2022-12-18T04:56:09;101838.16;;;-5.18;94.51
13690;BME280;6917;52.194;9.894;2022-12-18T04:58:36;101828.09;;;-5.08;94.22
13690;BME280;6917;52.194;9.894;2022-12-18T05:01:02;101832.09;;;-5.04;93.55
13690;BME280;6917;52.194;9.894;2022-12-18T05:03:27;101836.41;;;-5.03;93.10
13690;BME280;6917;52.194;9.894;2022-12-18T05:05:53;101832.28;;;-5.05;93.07
13690;BME280;6917;52.194;9.894;2022-12-18T05:08:18;101830.75;;;-5.08;92.40
13690;BME280;6917;52.194;9.894;2022-12-18T05:10:44;101831.91;;;-5.02;92.41
13690;BME280;6917;52.194;9.894;2022-12-18T05:13:09;101823.75;;;-5.01;92.24
13690;BME280;6917;52.194;9.894;2022-12-18T05:15:35;101832.59;;;-5.09;91.92
13690;BME280;6917;52.194;9.894;2022-12-18T05:18:00;101838.75;;;-5.08;92.04
13690;BME280;6917;52.194;9.894;2022-12-18T05:20:27;101846.91;;;-5.01;91.79
13690;BME280;6917;52.194;9.894;2022-12-18T05:22:53;101847.53;;;-4.91;91.56
13690;BME280;6917;52.194;9.894;2022-12-18T05:25:19;101841.19;;;-4.90;91.44
13690;BME280;6917;52.194;9.894;2022-12-18T05:27:45;101841.28;;;-4.84;90.62
13690;BME280;6917;52.194;9.894;2022-12-18T05:30:11;101847.34;;;-4.90;90.50
13690;BME280;6917;52.194;9.894;2022-12-18T05:32:37;101847.34;;;-4.90;90.35
13690;BME280;6917;52.194;9.894;2022-12-18T05:35:04;101849.00;;;-4.89;90.48
13690;BME280;6917;52.194;9.894;2022-12-18T05:37:29;101853.44;;;-4.81;90.31
13690;BME280;6917;52.194;9.894;2022-12-18T05:39:54;101844.97;;;-4.85;89.72
13690;BME280;6917;52.194;9.894;2022-12-18T05:42:20;101853.63;;;-4.83;90.00
13690;BME280;6917;52.194;9.894;2022-12-18T05:44:45;101852.78;;;-4.83;89.19
13690;BME280;6917;52.194;9.894;2022-12-18T05:47:10;101857.94;;;-4.82;89.39
13690;BME280;6917;52.194;9.894;2022-12-18T05:49:35;101859.56;;;-4.72;89.24
13690;BME280;6917;52.194;9.894;2022-12-18T05:52:01;101860.03;;;-4.69;89.34
13690;BME280;6917;52.194;9.894;2022-12-18T05:54:29;101864.06;;;-4.73;89.22
13690;BME280;6917;52.194;9.894;2022-12-18T05:56:54;101865.19;;;-4.67;88.84
13690;BME280;6917;52.194;9.894;2022-12-18T05:59:20;101874.47;;;-4.63;88.85
13690;BME280;6917;52.194;9.894;2022-12-18T06:01:45;101869.00;;;-4.62;88.64
13690;BME280;6917;52.194;9.894;2022-12-18T06:04:11;101885.13;;;-4.55;88.33
13690;BME280;6917;52.194;9.894;2022-12-18T06:06:36;101889.91;;;-4.51;87.96
13690;BME280;6917;52.194;9.894;2022-12-18T06:09:03;101885.41;;;-4.50;88.27
13690;BME280;6917;52.194;9.894;2022-12-18T06:11:34;101883.28;;;-4.55;87.89
13690;BME280;6917;52.194;9.894;2022-12-18T06:14:00;101881.44;;;-4.54;87.88
13690;BME280;6917;52.194;9.894;2022-12-18T06:16:27;101882.44;;;-4.55;87.39
13690;BME280;6917;52.194;9.894;2022-12-18T06:18:52;101877.16;;;-4.63;87.30
13690;BME280;6917;52.194;9.894;2022-12-18T06:21:18;101881.16;;;-4.59;87.71
13690;BME280;6917;52.194;9.894;2022-12-18T06:23:43;101887.13;;;-4.57;87.29
13690;BME280;6917;52.194;9.894;2022-12-18T06:26:10;101888.50;;;-4.61;87.27
13690;BME280;6917;52.194;9.894;2022-12-18T06:28:36;101887.81;;;-4.63;87.53
13690;BME280;6917;52.194;9.894;2022-12-18T06:31:05;101876.38;;;-4.72;87.98
13690;BME280;6917;52.194;9.894;2022-12-18T06:33:31;101867.75;;;-4.74;87.80
13690;BME280;6917;52.194;9.894;2022-12-18T06:36:05;101883.41;;;-4.79;87.96
13690;BME280;6917;52.194;9.894;2022-12-18T06:38:32;101880.06;;;-4.73;88.40
13690;BME280;6917;52.194;9.894;2022-12-18T06:40:58;101876.75;;;-4.75;88.19
13690;BME280;6917;52.194;9.894;2022-12-18T06:43:23;101880.66;;;-4.94;87.72
13690;BME280;6917;52.194;9.894;2022-12-18T06:45:49;101882.84;;;-4.97;88.24
13690;BME280;6917;52.194;9.894;2022-12-18T06:48:20;101879.16;;;-4.96;88.64
13690;BME280;6917;52.194;9.894;2022-12-18T06:50:45;101882.81;;;-4.89;88.81
13690;BME280;6917;52.194;9.894;2022-12-18T06:53:11;101890.94;;;-4.83;88.91
13690;BME280;6917;52.194;9.894;2022-12-18T06:55:36;101886.25;;;-4.81;89.01
13690;BME280;6917;52.194;9.894;2022-12-18T06:58:01;101891.47;;;-4.87;89.29
13690;BME280;6917;52.194;9.894;2022-12-18T07:00:27;101882.31;;;-4.93;89.52
13690;BME280;6917;52.194;9.894;2022-12-18T07:02:52;101894.13;;;-4.87;89.77
13690;BME280;6917;52.194;9.894;2022-12-18T07:05:17;101900.22;;;-4.79;89.42
13690;BME280;6917;52.194;9.894;2022-12-18T07:07:43;101896.13;;;-4.89;89.59
13690;BME280;6917;52.194;9.894;2022-12-18T07:10:09;101895.72;;;-4.78;90.05
13690;BME280;6917;52.194;9.894;2022-12-18T07:12:35;101902.88;;;-4.70;89.99
13690;BME280;6917;52.194;9.894;2022-12-18T07:15:00;101907.19;;;-4.69;90.06
13690;BME280;6917;52.194;9.894;2022-12-18T07:17:26;101901.50;;;-4.66;89.63
13690;BME280;6917;52.194;9.894;2022-12-18T07:19:51;101911.16;;;-4.65;89.74
13690;BME280;6917;52.194;9.894;2022-12-18T07:22:16;101917.81;;;-4.61;90.13
13690;BME280;6917;52.194;9.894;2022-12-18T07:24:42;101912.25;;;-4.52;90.16
13690;BME280;6917;52.194;9.894;2022-12-18T07:27:07;101907.22;;;-4.46;89.70
13690;BME280;6917;52.194;9.894;2022-12-18T07:29:32;101916.75;;;-4.52;90.20
13690;BME280;6917;52.194;9.894;2022-12-18T07:31:58;101917.59;;;-4.52;90.14
13690;BME280;6917;52.194;9.894;2022-12-18T07:34:23;101923.41;;;-4.48;89.47
13690;BME280;6917;52.194;9.894;2022-12-18T07:36:48;101919.25;;;-4.51;90.06
13690;BME280;6917;52.194;9.894;2022-12-18T07:39:14;101927.84;;;-4.40;90.09
13690;BME280;6917;52.194;9.894;2022-12-18T07:41:39;101922.47;;;-4.32;89.31
13690;BME280;6917;52.194;9.894;2022-12-18T07:44:09;101940.06;;;-4.23;89.28
13690;BME280;6917;52.194;9.894;2022-12-18T07:46:35;101935.94;;;-4.26;89.34
13690;BME280;6917;52.194;9.894;2022-12-18T07:49:00;101935.09;;;-4.26;89.35
13690;BME280;6917;52.194;9.894;2022-12-18T07:51:25;101932.44;;;-4.26;89.54
13690;BME280;6917;52.194;9.894;2022-12-18T07:53:51;101930.53;;;-4.17;89.46
13690;BME280;6917;52.194;9.894;2022-12-18T07:56:16;101928.44;;;-4.07;88.69
13690;BME280;6917;52.194;9.894;2022-12-18T07:58:41;101925.28;;;-4.03;88.69
13690;BME280;6917;52.194;9.894;2022-12-18T08:01:11;101922.41;;;-4.01;88.51
13690;BME280;6917;52.194;9.894;2022-12-18T08:03:37;101925.09;;;-4.01;88.65
13690;BME280;6917;52.194;9.894;2022-12-18T08:06:05;101914.78;;;-4.04;88.83
13690;BME280;6917;52.194;9.894;2022-12-18T08:08:32;101912.81;;;-4.10;89.09
13690;BME280;6917;52.194;9.894;2022-12-18T08:10:57;101912.34;;;-4.14;89.22
13690;BME280;6917;52.194;9.894;2022-12-18T08:13:23;101913.81;;;-4.11;89.48
13690;BME280;6917;52.194;9.894;2022-12-18T08:15:59;101909.91;;;-4.01;89.44
13690;BME280;6917;52.194;9.894;2022-12-18T08:18:24;101906.91;;;-4.06;89.49
13690;BME280;6917;52.194;9.894;2022-12-18T08:20:50;101899.09;;;-4.07;89.66
13690;BME280;6917;52.194;9.894;2022-12-18T08:23:16;101900.25;;;-4.02;89.41
13690;BME280;6917;52.194;9.894;2022-12-18T08:25:41;101900.59;;;-4.05;89.36
13690;BME280;6917;52.194;9.894;2022-12-18T08:28:06;101896.25;;;-4.06;89.36
13690;BME280;6917;52.194;9.894;2022-12-18T08:30:31;101883.91;;;-4.07;89.68
13690;BME280;6917;52.194;9.894;2022-12-18T08:32:57;101886.41;;;-4.05;89.73
13690;BME280;6917;52.194;9.894;2022-12-18T08:35:23;101891.50;;;-3.96;89.66
13690;BME280;6917;52.194;9.894;2022-12-18T08:37:48;101881.13;;;-3.91;89.54
13690;BME280;6917;52.194;9.894;2022-12-18T08:40:13;101880.63;;;-3.94;89.72
13690;BME280;6917;52.194;9.894;2022-12-18T08:42:39;101889.88;;;-3.82;89.33
13690;BME280;6917;52.194;9.894;2022-12-18T08:45:22;101888.88;;;-3.81;88.83
13690;BME280;6917;52.194;9.894;2022-12-18T08:47:48;101883.53;;;-3.81;88.74
13690;BME280;6917;52.194;9.894;2022-12-18T08:50:13;101880.28;;;-3.76;88.64
13690;BME280;6917;52.194;9.894;2022-12-18T08:52:39;101876.28;;;-3.72;88.65
13690;BME280;6917;52.194;9.894;2022-12-18T08:55:05;101872.88;;;-3.66;87.89
13690;BME280;6917;52.194;9.894;2022-12-18T08:57:31;101871.97;;;-3.58;88.02
13690;BME280;6917;52.194;9.894;2022-12-18T08:59:56;101873.25;;;-3.54;87.47
13690;BME280;6917;52.194;9.894;2022-12-18T09:02:21;101881.06;;;-3.53;87.36
13690;BME280;6917;52.194;9.894;2022-12-18T09:04:47;101878.53;;;-3.46;87.16
13690;BME280;6917;52.194;9.894;2022-12-18T09:07:12;101877.03;;;-3.49;86.69
13690;BME280;6917;52.194;9.894;2022-12-18T09:09:38;101883.75;;;-3.38;86.69
13690;BME280;6917;52.194;9.894;2022-12-18T09:12:03;101879.06;;;-3.36;86.62
13690;BME280;6917;52.194;9.894;2022-12-18T09:14:28;101875.09;;;-3.25;86.01
13690;BME280;6917;52.194;9.894;2022-12-18T09:16:54;101874.34;;;-3.19;86.08
13690;BME280;6917;52.194;9.894;2022-12-18T09:19:19;101872.88;;;-3.07;85.14
13690;BME280;6917;52.194;9.894;2022-12-18T09:21:45;101871.13;;;-3.00;84.76
13690;BME280;6917;52.194;9.894;2022-12-18T09:24:12;101871.47;;;-2.88;84.36
13690;BME280;6917;52.194;9.894;2022-12-18T09:26:38;101860.25;;;-2.77;83.56
13690;BME280;6917;52.194;9.894;2022-12-18T09:29:04;101854.88;;;-2.62;82.82
13690;BME280;6917;52.194;9.894;2022-12-18T09:31:29;101847.03;;;-2.64;82.36
13690;BME280;6917;52.194;9.894;2022-12-18T09:33:55;101843.72;;;-2.66;82.30
13690;BME280;6917;52.194;9.894;2022-12-18T09:36:21;101856.16;;;-2.58;81.83
13690;BME280;6917;52.194;9.894;2022-12-18T09:38:46;101854.19;;;-2.50;81.95
13690;BME280;6917;52.194;9.894;2022-12-18T09:41:35;101857.97;;;-2.44;81.62
13690;BME280;6917;52.194;9.894;2022-12-18T09:46:48;101862.66;;;-2.46;80.70
13690;BME280;6917;52.194;9.894;2022-12-18T09:49:18;101864.88;;;-2.50;80.35
13690;BME280;6917;52.194;9.894;2022-12-18T09:51:51;101867.38;;;-2.48;80.57
13690;BME280;6917;52.194;9.894;2022-12-18T09:54:26;101868.91;;;-2.39;80.74
13690;BME280;6917;52.194;9.894;2022-12-18T09:56:54;101872.34;;;-2.24;80.35
13690;BME280;6917;52.194;9.894;2022-12-18T09:59:24;101877.25;;;-2.06;79.36
13690;BME280;6917;52.194;9.894;2022-12-18T10:01:49;101877.75;;;-1.96;78.78
13690;BME280;6917;52.194;9.894;2022-12-18T10:04:15;101883.22;;;-1.83;78.66
13690;BME280;6917;52.194;9.894;2022-12-18T10:14:43;101872.06;;;-1.58;77.56
13690;BME280;6917;52.194;9.894;2022-12-18T10:17:35;101861.59;;;-1.53;77.12
13690;BME280;6917;52.194;9.894;2022-12-18T10:23:33;101860.22;;;-1.42;75.64
13690;BME280;6917;52.194;9.894;2022-12-18T10:26:11;101853.81;;;-1.41;75.58
13690;BME280;6917;52.194;9.894;2022-12-18T10:28:40;101868.72;;;-1.32;74.94
13690;BME280;6917;52.194;9.894;2022-12-18T10:31:07;101874.53;;;-1.29;74.47
13690;BME280;6917;52.194;9.894;2022-12-18T10:33:33;101860.03;;;-1.34;74.74
13690;BME280;6917;52.194;9.894;2022-12-18T10:35:59;101852.41;;;-1.31;74.77
13690;BME280;6917;52.194;9.894;2022-12-18T10:38:31;101850.75;;;-1.32;75.35
13690;BME280;6917;52.194;9.894;2022-12-18T10:41:24;101858.69;;;-1.17;75.78
13690;BME280;6917;52.194;9.894;2022-12-18T10:44:12;101861.00;;;-1.14;75.05
13690;BME280;6917;52.194;9.894;2022-12-18T10:46:37;101873.63;;;-1.01;74.88
13690;BME280;6917;52.194;9.894;2022-12-18T10:49:03;101869.09;;;-1.01;74.19
13690;BME280;6917;52.194;9.894;2022-12-18T10:51:32;101866.03;;;-0.91;74.28
13690;BME280;6917;52.194;9.894;2022-12-18T10:54:03;101862.34;;;-0.83;74.25
13690;BME280;6917;52.194;9.894;2022-12-18T10:56:31;101856.94;;;-0.97;74.15
13690;BME280;6917;52.194;9.894;2022-12-18T10:59:09;101853.03;;;-0.87;73.94
13690;BME280;6917;52.194;9.894;2022-12-18T11:01:55;101840.09;;;-0.71;73.55
13690;BME280;6917;52.194;9.894;2022-12-18T11:07:05;101827.06;;;-0.74;71.97
13690;BME280;6917;52.194;9.894;2022-12-18T11:09:36;101821.34;;;-0.57;72.38
13690;BME280;6917;52.194;9.894;2022-12-18T11:17:21;101807.50;;;-0.48;72.62
13690;BME280;6917;52.194;9.894;2022-12-18T11:20:21;101803.81;;;-0.53;72.42
13690;BME280;6917;52.194;9.894;2022-12-18T11:23:10;101810.22;;;-0.35;71.90
13690;BME280;6917;52.194;9.894;2022-12-18T11:25:37;101812.09;;;-0.42;72.09
13690;BME280;6917;52.194;9.894;2022-12-18T11:28:06;101811.03;;;-0.34;71.11
13690;BME280;6917;52.194;9.894;2022-12-18T11:33:46;101813.53;;;-0.26;71.69
13690;BME280;6917;52.194;9.894;2022-12-18T11:36:14;101816.19;;;-0.33;71.21
13690;BME280;6917;52.194;9.894;2022-12-18T11:38:40;101817.84;;;-0.45;70.56
13690;BME280;6917;52.194;9.894;2022-12-18T11:41:23;101814.13;;;-0.50;70.21
13690;BME280;6917;52.194;9.894;2022-12-18T11:44:14;101813.28;;;-0.51;70.46
13690;BME280;6917;52.194;9.894;2022-12-18T11:46:51;101803.19;;;-0.42;70.12
13690;BME280;6917;52.194;9.894;2022-12-18T11:49:32;101795.53;;;-0.45;69.49
13690;BME280;6917;52.194;9.894;2022-12-18T11:54:27;101775.94;;;-0.39;69.46
13690;BME280;6917;52.194;9.894;2022-12-18T11:57:04;101778.63;;;-0.33;70.23
13690;BME280;6917;52.194;9.894;2022-12-18T11:59:50;101769.53;;;-0.32;70.53
13690;BME280;6917;52.194;9.894;2022-12-18T12:05:20;101761.28;;;-0.43;71.20
13690;BME280;6917;52.194;9.894;2022-12-18T12:10:58;101743.50;;;-0.71;71.47
13690;BME280;6917;52.194;9.894;2022-12-18T12:14:07;101733.38;;;-0.49;72.11
13690;BME280;6917;52.194;9.894;2022-12-18T12:19:35;101739.19;;;-0.52;72.78
13690;BME280;6917;52.194;9.894;2022-12-18T12:22:21;101736.69;;;-0.53;72.24
13690;BME280;6917;52.194;9.894;2022-12-18T12:25:04;101726.59;;;-0.51;71.66
13690;BME280;6917;52.194;9.894;2022-12-18T12:36:05;101718.13;;;-0.68;72.10
13690;BME280;6917;52.194;9.894;2022-12-18T12:38:46;101719.56;;;-0.66;72.01
13690;BME280;6917;52.194;9.894;2022-12-18T12:41:18;101710.28;;;-0.70;71.77
13690;BME280;6917;52.194;9.894;2022-12-18T12:44:07;101693.09;;;-0.88;71.55
13690;BME280;6917;52.194;9.894;2022-12-18T12:46:39;101706.31;;;-0.87;71.55
13690;BME280;6917;52.194;9.894;2022-12-18T12:49:13;101707.59;;;-0.83;71.86
13690;BME280;6917;52.194;9.894;2022-12-18T12:51:41;101721.56;;;-1.14;73.45
13690;BME280;6917;52.194;9.894;2022-12-18T12:54:16;101722.75;;;-1.30;75.61
13690;BME280;6917;52.194;9.894;2022-12-18T12:56:58;101705.75;;;-1.50;77.67
13690;BME280;6917;52.194;9.894;2022-12-18T13:05:02;101715.53;;;-1.77;81.43
13690;BME280;6917;52.194;9.894;2022-12-18T13:07:40;101729.25;;;-1.93;82.99
13690;BME280;6917;52.194;9.894;2022-12-18T13:13:05;101719.09;;;-2.04;85.62
13690;BME280;6917;52.194;9.894;2022-12-18T13:15:41;101720.91;;;-2.12;86.37
13690;BME280;6917;52.194;9.894;2022-12-18T13:20:39;101707.03;;;-2.22;88.00
13690;BME280;6917;52.194;9.894;2022-12-18T13:31:12;101732.84;;;-2.14;89.74
13690;BME280;6917;52.194;9.894;2022-12-18T13:33:46;101727.69;;;-2.16;89.35
13690;BME280;6917;52.194;9.894;2022-12-18T13:36:15;101729.69;;;-2.18;89.19
13690;BME280;6917;52.194;9.894;2022-12-18T13:38:42;101722.75;;;-2.12;88.62
13690;BME280;6917;52.194;9.894;2022-12-18T13:43:45;101714.88;;;-2.20;87.85
13690;BME280;6917;52.194;9.894;2022-12-18T13:46:29;101707.03;;;-2.22;87.96
13690;BME280;6917;52.194;9.894;2022-12-18T13:49:04;101705.38;;;-2.23;87.71
13690;BME280;6917;52.194;9.894;2022-12-18T13:51:33;101695.41;;;-2.35;88.29
13690;BME280;6917;52.194;9.894;2022-12-18T13:54:06;101702.31;;;-2.48;88.78
13690;BME280;6917;52.194;9.894;2022-12-18T13:56:44;101706.22;;;-2.50;89.35
13690;BME280;6917;52.194;9.894;2022-12-18T14:01:44;101691.03;;;-2.71;90.38
13690;BME280;6917;52.194;9.894;2022-12-18T14:04:12;101689.38;;;-2.72;90.59
13690;BME280;6917;52.194;9.894;2022-12-18T14:06:41;101690.97;;;-2.78;91.44
13690;BME280;6917;52.194;9.894;2022-12-18T14:09:14;101682.31;;;-2.80;91.45
13690;BME280;6917;52.194;9.894;2022-12-18T14:11:39;101679.78;;;-2.88;92.04
13690;BME280;6917;52.194;9.894;2022-12-18T14:14:05;101679.53;;;-2.93;92.79
13690;BME280;6917;52.194;9.894;2022-12-18T14:16:33;101673.16;;;-2.92;93.00
13690;BME280;6917;52.194;9.894;2022-12-18T14:18:59;101672.78;;;-2.89;93.70
13690;BME280;6917;52.194;9.894;2022-12-18T14:21:29;101663.44;;;-3.00;93.90
13690;BME280;6917;52.194;9.894;2022-12-18T14:24:05;101662.34;;;-3.05;94.35
13690;BME280;6917;52.194;9.894;2022-12-18T14:26:31;101659.84;;;-3.07;94.89
13690;BME280;6917;52.194;9.894;2022-12-18T14:29:01;101653.88;;;-3.09;94.75
13690;BME280;6917;52.194;9.894;2022-12-18T14:31:39;101639.88;;;-3.11;95.23
13690;BME280;6917;52.194;9.894;2022-12-18T14:34:04;101637.25;;;-3.04;94.54
13690;BME280;6917;52.194;9.894;2022-12-18T14:36:29;101641.53;;;-3.10;94.82
13690;BME280;6917;52.194;9.894;2022-12-18T14:38:56;101633.91;;;-3.13;94.77
13690;BME280;6917;52.194;9.894;2022-12-18T14:41:23;101627.66;;;-3.20;94.72
13690;BME280;6917;52.194;9.894;2022-12-18T14:43:51;101632.56;;;-3.23;94.37